Time;durP1;ratioP1;P1;durP2;ratioP2;P2;SDS_P1;SDS_P2;PMS_P1;PMS_P2;Temp;Humidity;BMP_temperature;BMP_pressure;BME280_temperature;BME280_humidity;BME280_pressure;Samples;Min_cycle;Max_cycle;Signal;HPM_P1;HPM_P2
2024/01/26 12:05:27;;;;;;;4.10;3.10;;;;;;;3.49;66.51;100608.47;100604;1292;636040;-67
2024/01/26 12:07:55;;;;;;;5.10;3.50;;;;;;;3.37;66.69;100616.15;102602;1260;137076;-66
2024/01/26 12:10:23;;;;;;;4.20;3.00;;;;;;;3.32;67.08;100611.52;102945;1267;108053;-65
2024/01/26 12:12:50;;;;;;;6.80;3.40;;;;;;;3.32;67.14;100610.30;103125;1264;136810;-67
2024/01/26 12:15:18;;;;;;;4.80;3.70;;;;;;;3.33;67.40;100600.52;102699;1267;106659;-66
2024/01/26 12:17:47;;;;;;;5.50;4.30;;;;;;;3.35;67.26;100585.90;103040;1264;106737;-66
2024/01/26 12:20:15;;;;;;;6.00;4.20;;;;;;;3.37;67.24;100579.55;102921;1262;136896;-65
2024/01/26 12:22:45;;;;;;;5.40;4.00;;;;;;;3.38;67.42;100577.83;102873;1266;107746;-65
2024/01/26 12:25:15;;;;;;;6.90;4.30;;;;;;;3.36;67.56;100576.11;102831;1262;136968;-65
2024/01/26 12:27:42;;;;;;;8.40;4.30;;;;;;;3.31;67.39;100575.94;103064;1263;106713;-65
2024/01/26 12:30:11;;;;;;;5.10;3.60;;;;;;;3.21;67.39;100579.68;102833;1264;107340;-66
2024/01/26 12:32:39;;;;;;;6.00;3.90;;;;;;;3.10;67.54;100575.02;103096;1266;138071;-66
2024/01/26 12:35:08;;;;;;;4.10;3.30;;;;;;;3.03;67.68;100576.69;103076;1257;109137;-66
2024/01/26 12:37:35;;;;;;;4.90;3.60;;;;;;;3.05;67.96;100575.67;103251;1257;139248;-65
2024/01/26 12:40:02;;;;;;;6.40;4.20;;;;;;;3.04;67.82;100571.02;103179;1258;108157;-65
2024/01/26 12:42:31;;;;;;;6.60;4.20;;;;;;;3.03;68.05;100567.07;103045;1257;107434;-65
2024/01/26 12:44:59;;;;;;;6.80;4.40;;;;;;;3.01;68.18;100564.83;103160;1262;95114;-66
2024/01/26 12:47:26;;;;;;;5.30;4.60;;;;;;;3.01;68.19;100567.41;103070;1258;107543;-66
2024/01/26 12:49:55;;;;;;;10.00;5.20;;;;;;;2.96;68.33;100558.64;102953;1257;137004;-66
2024/01/26 12:52:22;;;;;;;7.60;4.30;;;;;;;2.92;68.28;100553.65;103122;1262;108560;-66
2024/01/26 12:54:52;;;;;;;7.30;4.40;;;;;;;2.88;68.34;100545.39;102913;1262;137608;-66
2024/01/26 12:57:19;;;;;;;6.00;4.50;;;;;;;2.89;68.57;100541.27;103093;1257;95103;-65
2024/01/26 12:59:47;;;;;;;6.10;4.80;;;;;;;2.89;68.19;100537.48;102185;1260;1003280;-67
2024/01/26 13:02:15;;;;;;;7.00;4.70;;;;;;;2.81;67.93;100539.17;102905;1263;137397;-67
2024/01/26 13:04:43;;;;;;;7.20;5.00;;;;;;;2.76;68.25;100535.38;103132;1257;108620;-66
2024/01/26 13:07:10;;;;;;;6.10;4.50;;;;;;;2.71;68.36;100537.09;102849;1262;137561;-68
2024/01/26 13:09:37;;;;;;;5.90;4.30;;;;;;;2.66;68.59;100537.04;103262;1261;95109;-69
2024/01/26 13:12:05;;;;;;;5.60;5.00;;;;;;;2.62;68.79;100533.08;104008;1257;107339;-68
2024/01/26 13:14:33;;;;;;;7.60;4.40;;;;;;;2.57;69.09;100526.54;103195;1257;137712;-67
2024/01/26 13:17:00;;;;;;;5.50;4.00;;;;;;;2.56;69.14;100530.14;103078;1257;110117;-68
2024/01/26 13:19:27;;;;;;;4.80;3.50;;;;;;;2.57;69.63;100524.48;103579;1262;138869;-69
2024/01/26 13:21:56;;;;;;;4.60;3.90;;;;;;;2.59;69.74;100522.08;103435;1257;94990;-69
2024/01/26 13:24:23;;;;;;;6.60;4.20;;;;;;;2.63;70.07;100524.33;103135;1261;108597;-68
2024/01/26 13:26:51;;;;;;;6.90;4.60;;;;;;;2.64;70.16;100524.67;103710;1257;137124;-68
2024/01/26 13:29:18;;;;;;;7.00;5.00;;;;;;;2.63;70.35;100525.70;103172;1257;108629;-71
2024/01/26 13:31:45;;;;;;;5.30;4.70;;;;;;;2.62;70.66;100522.61;103259;1262;138491;-67
2024/01/26 13:34:12;;;;;;;9.70;5.50;;;;;;;2.63;70.68;100523.81;103654;1257;95132;-67
2024/01/26 13:36:41;;;;;;;7.60;5.20;;;;;;;2.61;70.73;100520.20;103576;1257;137008;-69
2024/01/26 13:39:10;;;;;;;8.60;5.60;;;;;;;2.57;71.11;100517.77;103906;1257;96868;-67
2024/01/26 13:41:38;;;;;;;7.80;5.50;;;;;;;2.54;71.21;100511.26;103594;1257;107463;-66
2024/01/26 13:44:07;;;;;;;7.60;5.90;;;;;;;2.51;71.12;100508.14;103322;1256;137801;-68
2024/01/26 13:46:34;;;;;;;7.90;5.70;;;;;;;2.43;71.62;100499.69;103467;1256;95437;-66
2024/01/26 13:49:01;;;;;;;10.50;5.20;;;;;;;2.44;71.88;100490.25;103070;1257;137481;-65
2024/01/26 13:51:28;;;;;;;7.20;4.80;;;;;;;2.48;72.36;100490.27;103586;1256;94608;-68
2024/01/26 13:53:55;;;;;;;9.20;5.20;;;;;;;2.53;72.23;100483.44;103499;1254;108516;-68
2024/01/26 13:56:22;;;;;;;7.10;5.20;;;;;;;2.59;72.63;100476.59;104038;1257;138234;-71
2024/01/26 13:58:49;;;;;;;6.90;4.80;;;;;;;2.70;72.71;100473.71;103968;1254;94263;-72
2024/01/26 14:01:17;;;;;;;8.60;5.60;;;;;;;2.80;72.71;100462.05;103344;1256;136904;-71
2024/01/26 14:03:45;;;;;;;8.20;5.40;;;;;;;2.88;72.66;100459.18;104136;1254;95090;-72
2024/01/26 14:06:12;;;;;;;10.10;5.70;;;;;;;2.93;72.62;100453.00;103413;1257;107749;-68
2024/01/26 14:08:39;;;;;;;7.00;5.50;;;;;;;2.96;72.42;100453.52;103596;1255;137398;-69
2024/01/26 14:11:06;;;;;;;8.40;6.10;;;;;;;2.94;72.40;100447.51;104008;1255;95025;-69
2024/01/26 14:13:33;;;;;;;8.30;6.20;;;;;;;2.89;72.47;100447.67;103859;1254;136548;-69
2024/01/26 14:16:01;;;;;;;9.10;6.60;;;;;;;2.90;72.70;100443.39;103157;1257;95086;-70
2024/01/26 14:18:28;;;;;;;11.70;6.50;;;;;;;2.92;72.65;100441.84;103107;1254;109448;-69
2024/01/26 14:20:57;;;;;;;9.50;6.30;;;;;;;2.92;72.97;100428.61;103596;1257;1002379;-75
2024/01/26 14:23:25;;;;;;;9.60;6.30;;;;;;;2.91;72.78;100420.54;103565;1259;95988;-71
2024/01/26 14:25:54;;;;;;;7.90;5.80;;;;;;;2.87;72.88;100416.41;103075;1255;137282;-69
2024/01/26 14:28:21;;;;;;;10.00;5.80;;;;;;;2.88;73.13;100412.13;103297;1258;95036;-70
2024/01/26 14:30:49;;;;;;;7.20;5.60;;;;;;;2.91;73.23;100409.72;103533;1256;139559;-67
2024/01/26 14:33:17;;;;;;;8.40;5.40;;;;;;;3.00;73.39;100404.05;103315;1257;107827;-67
2024/01/26 14:35:44;;;;;;;9.60;6.00;;;;;;;3.06;73.37;100400.12;103337;1256;95088;-66
2024/01/26 14:38:13;;;;;;;8.40;5.70;;;;;;;3.02;73.16;100390.99;103125;1259;136648;-66
2024/01/26 14:40:40;;;;;;;14.00;6.20;;;;;;;2.95;73.12;100390.66;103274;1257;95171;-68
2024/01/26 14:43:10;;;;;;;11.70;6.30;;;;;;;2.88;73.09;100392.20;103248;1259;137034;-67
2024/01/26 14:45:36;;;;;;;9.90;6.40;;;;;;;2.81;73.34;100392.17;103215;1256;107298;-68
2024/01/26 14:48:07;;;;;;;11.00;6.70;;;;;;;2.76;73.51;100396.81;103341;1256;95430;-67
2024/01/26 14:50:35;;;;;;;11.40;6.80;;;;;;;2.67;73.53;100391.29;102445;1257;1002943;-67
2024/01/26 14:53:03;;;;;;;10.00;6.30;;;;;;;2.60;73.86;100386.48;103386;1257;95398;-67
2024/01/26 14:55:30;;;;;;;12.80;6.30;;;;;;;2.52;74.16;100379.60;103125;1257;137310;-68
2024/01/26 14:58:00;;;;;;;12.90;7.30;;;;;;;2.50;74.34;100372.02;103267;1257;108579;-68
2024/01/26 15:00:28;;;;;;;12.50;6.50;;;;;;;2.48;74.33;100369.27;103346;1256;95106;-69
2024/01/26 15:02:55;;;;;;;13.30;7.10;;;;;;;2.45;74.49;100369.95;103411;1255;137572;-69
2024/01/26 15:05:25;;;;;;;11.80;6.60;;;;;;;2.36;74.50;100362.55;103308;1257;95160;-68
2024/01/26 15:07:52;;;;;;;13.80;7.10;;;;;;;2.38;74.82;100372.00;103240;1257;138298;-68
2024/01/26 15:10:21;;;;;;;12.20;8.40;;;;;;;2.39;75.19;100373.73;103338;1254;107388;-70
2024/01/26 15:12:49;;;;;;;13.40;9.20;;;;;;;2.37;75.20;100374.06;103498;1254;137517;-68
2024/01/26 15:15:18;;;;;;;20.10;11.50;;;;;;;2.35;75.30;100365.99;103429;1258;107136;-68
2024/01/26 15:17:48;;;;;;;21.80;11.60;;;;;;;2.30;75.38;100368.36;102684;1254;1003097;-67
2024/01/26 15:20:19;;;;;;;17.80;10.50;;;;;;;2.24;75.44;100368.86;103506;1256;137920;-68
2024/01/26 15:22:48;;;;;;;13.20;9.30;;;;;;;2.19;75.76;100369.70;103529;1256;108983;-69
2024/01/26 15:25:16;;;;;;;14.20;9.40;;;;;;;2.16;75.77;100368.50;103288;1254;138028;-68
2024/01/26 15:27:43;;;;;;;14.40;8.50;;;;;;;2.15;76.06;100367.62;103295;1259;108088;-66
2024/01/26 15:30:13;;;;;;;12.70;8.70;;;;;;;2.14;76.14;100364.86;103390;1254;95163;-68
2024/01/26 15:32:44;;;;;;;14.10;9.50;;;;;;;2.10;76.44;100367.09;103256;1254;137082;-67
2024/01/26 15:35:14;;;;;;;15.80;10.30;;;;;;;2.08;76.26;100361.09;103583;1256;107747;-67
2024/01/26 15:37:41;;;;;;;17.70;10.30;;;;;;;2.09;76.60;100361.77;103577;1250;137361;-67
2024/01/26 15:40:13;;;;;;;12.80;9.30;;;;;;;2.08;76.57;100359.02;102727;1256;1003687;-70
2024/01/26 15:42:40;;;;;;;16.70;10.00;;;;;;;2.02;76.44;100352.48;103595;1256;137488;-70
2024/01/26 15:45:10;;;;;;;13.10;9.30;;;;;;;1.97;76.62;100346.46;103664;1253;108892;-71
2024/01/26 15:47:38;;;;;;;16.40;9.00;;;;;;;1.91;76.73;100336.14;103964;1256;106882;-71
2024/01/26 15:50:11;;;;;;;15.10;9.60;;;;;;;1.89;76.81;100330.98;103489;1251;139176;-71
2024/01/26 15:53:25;;;;;;;15.80;9.70;;;;;;;1.87;77.00;100322.41;103598;1255;108051;-69
2024/01/26 15:55:55;;;;;;;17.40;11.00;;;;;;;1.83;77.19;100309.19;103578;1251;137717;-70
2024/01/26 15:58:22;;;;;;;23.30;11.20;;;;;;;1.82;77.22;100301.30;103514;1253;108801;-69
2024/01/26 16:00:49;;;;;;;20.90;12.80;;;;;;;1.80;77.31;100294.27;103243;1250;138763;-69
2024/01/26 16:03:16;;;;;;;16.90;11.50;;;;;;;1.78;77.32;100289.95;103593;1255;95188;-69
2024/01/26 16:05:45;;;;;;;19.50;13.30;;;;;;;1.77;77.46;100283.61;103553;1250;107927;-70
2024/01/26 16:08:13;;;;;;;22.00;12.60;;;;;;;1.75;77.49;100276.23;103518;1250;137289;-70
2024/01/26 16:10:42;;;;;;;21.10;11.20;;;;;;;1.63;77.67;100255.45;103561;1255;108158;-71
2024/01/26 16:13:09;;;;;;;17.30;10.10;;;;;;;1.63;77.93;100258.73;103350;1255;138381;-71
2024/01/26 16:15:36;;;;;;;17.40;10.70;;;;;;;1.63;78.00;100255.46;103504;1253;98126;-71
2024/01/26 16:18:04;;;;;;;17.60;10.60;;;;;;;1.62;77.98;100251.52;103523;1256;106866;-70
2024/01/26 16:20:31;;;;;;;16.50;10.10;;;;;;;1.64;78.02;100247.41;104081;1250;138499;-71
2024/01/26 16:23:01;;;;;;;15.70;10.90;;;;;;;1.65;78.05;100243.65;103466;1250;108805;-73
2024/01/26 16:25:28;;;;;;;17.70;11.60;;;;;;;1.67;78.20;100241.26;103405;1253;138069;-74
2024/01/26 16:27:59;;;;;;;16.00;11.30;;;;;;;1.67;78.09;100232.51;103524;1250;96910;-71
2024/01/26 16:30:26;;;;;;;18.60;11.70;;;;;;;1.68;78.23;100229.60;103536;1253;106931;-72
2024/01/26 16:32:53;;;;;;;22.80;11.80;;;;;;;1.66;78.28;100226.52;102598;1250;1003474;-72
2024/01/26 16:35:21;;;;;;;18.90;11.30;;;;;;;1.65;78.41;100221.20;103564;1250;109001;-71
2024/01/26 16:37:47;;;;;;;16.70;10.80;;;;;;;1.65;78.54;100214.52;103361;1250;138337;-72
2024/01/26 16:40:15;;;;;;;17.60;11.20;;;;;;;1.66;78.62;100215.02;103505;1251;96399;-72
2024/01/26 16:42:42;;;;;;;22.90;13.80;;;;;;;1.68;78.50;100209.04;103462;1255;138200;-70
2024/01/26 16:45:11;;;;;;;21.90;13.40;;;;;;;1.70;78.53;100204.40;103478;1250;96459;-69
2024/01/26 16:47:37;;;;;;;22.60;14.10;;;;;;;1.71;78.41;100205.09;103940;1253;109376;-72
2024/01/26 16:50:07;;;;;;;29.40;15.90;;;;;;;1.69;78.45;100194.46;103297;1255;137502;-71
2024/01/26 16:52:34;;;;;;;27.00;15.40;;;;;;;1.66;78.43;100190.70;103822;1250;98496;-69
2024/01/26 16:55:01;;;;;;;19.20;11.60;;;;;;;1.63;78.42;100182.63;103302;1250;137483;-70
2024/01/26 16:57:28;;;;;;;22.00;12.50;;;;;;;1.61;78.53;100176.27;103586;1250;96434;-72
2024/01/26 16:59:55;;;;;;;19.80;11.50;;;;;;;1.60;78.66;100168.88;103571;1250;109640;-69
2024/01/26 17:02:23;;;;;;;21.90;12.50;;;;;;;1.61;78.64;100168.73;103357;1251;138803;-71
2024/01/26 17:04:50;;;;;;;23.70;13.10;;;;;;;1.62;78.64;100162.05;103553;1250;96433;-68
2024/01/26 17:07:17;;;;;;;21.30;13.20;;;;;;;1.62;78.77;100149.20;103278;1256;137504;-67
2024/01/26 17:09:44;;;;;;;18.40;12.10;;;;;;;1.61;78.73;100153.98;103533;1255;96342;-67
2024/01/26 17:12:11;;;;;;;23.90;13.80;;;;;;;1.57;78.66;100141.30;103529;1250;109554;-67
2024/01/26 17:14:38;;;;;;;24.00;13.50;;;;;;;1.55;78.78;100139.58;103495;1255;137645;-67
2024/01/26 17:17:05;;;;;;;19.00;11.90;;;;;;;1.47;78.86;100137.35;103591;1254;96939;-67
2024/01/26 17:19:32;;;;;;;16.90;11.30;;;;;;;1.41;79.22;100143.13;103486;1250;138248;-67
2024/01/26 17:21:59;;;;;;;19.00;10.80;;;;;;;1.38;79.26;100131.65;103642;1256;96505;-67
2024/01/26 17:24:26;;;;;;;21.40;11.50;;;;;;;1.35;79.32;100124.45;103513;1250;109696;-68
2024/01/26 17:26:53;;;;;;;19.60;12.40;;;;;;;1.34;79.43;100122.90;103447;1250;137840;-68
2024/01/26 17:29:20;;;;;;;20.60;13.10;;;;;;;1.33;79.55;100107.30;103545;1255;96348;-67
2024/01/26 17:31:48;;;;;;;22.90;14.40;;;;;;;1.33;79.62;100096.35;103408;1250;137420;-68
2024/01/26 17:34:16;;;;;;;21.80;15.30;;;;;;;1.32;79.66;100092.23;104639;1251;94417;-68
2024/01/26 17:36:43;;;;;;;23.40;14.60;;;;;;;1.29;80.01;100090.02;104004;1250;137668;-71
2024/01/26 17:39:10;;;;;;;22.90;14.00;;;;;;;1.24;80.13;100089.63;103415;1250;107100;-69
2024/01/26 17:41:37;;;;;;;21.70;13.10;;;;;;;1.22;80.20;100098.02;103546;1250;96446;-68
2024/01/26 17:44:05;;;;;;;19.00;12.40;;;;;;;1.20;80.56;100109.31;103415;1255;138001;-66
2024/01/26 17:46:32;;;;;;;21.70;12.80;;;;;;;1.21;80.69;100106.75;103532;1256;96417;-67
2024/01/26 17:49:14;;;;;;;18.60;12.60;;;;;;;1.23;80.90;100109.66;103438;1250;138381;-69
2024/01/26 17:51:41;;;;;;;20.60;14.30;;;;;;;1.24;80.75;100104.88;103509;1250;107316;-71
2024/01/26 17:54:09;;;;;;;27.60;14.70;;;;;;;1.23;80.96;100100.77;103567;1250;96521;-67
2024/01/26 17:56:36;;;;;;;23.30;16.10;;;;;;;1.24;81.04;100102.14;103478;1253;137293;-69
2024/01/26 17:59:03;;;;;;;26.30;14.70;;;;;;;1.21;81.16;100091.16;103556;1256;96430;-69
2024/01/26 18:01:29;;;;;;;21.50;13.90;;;;;;;1.19;81.24;100082.59;103251;1256;138856;-68
2024/01/26 18:03:57;;;;;;;22.60;13.70;;;;;;;1.18;81.45;100073.70;103557;1250;107264;-69
2024/01/26 18:06:24;;;;;;;23.10;14.30;;;;;;;1.20;81.58;100068.90;103516;1251;96440;-69
2024/01/26 18:08:51;;;;;;;22.10;15.10;;;;;;;1.21;81.46;100063.94;103761;1250;137581;-68
2024/01/26 18:11:18;;;;;;;26.90;15.90;;;;;;;1.22;81.64;100063.08;103561;1250;96463;-68
2024/01/26 18:13:46;;;;;;;25.90;16.90;;;;;;;1.21;81.65;100055.03;103454;1250;137325;-68
2024/01/26 18:16:12;;;;;;;28.00;15.70;;;;;;;1.16;81.75;100042.87;103501;1250;107417;-68
2024/01/26 18:18:39;;;;;;;25.10;15.40;;;;;;;1.14;81.90;100037.89;103314;1250;138312;-68
2024/01/26 18:21:06;;;;;;;23.80;16.30;;;;;;;1.13;81.86;100040.98;103326;1255;109329;-68
2024/01/26 18:23:34;;;;;;;25.60;15.70;;;;;;;1.15;81.89;100041.50;103470;1252;97285;-68
2024/01/26 18:26:01;;;;;;;24.40;16.10;;;;;;;1.18;81.79;100038.07;103162;1253;137667;-67
2024/01/26 18:28:28;;;;;;;26.20;17.30;;;;;;;1.19;82.01;100039.79;103437;1253;109032;-69
2024/01/26 18:31:18;;;;;;;27.80;17.10;;;;;;;1.19;81.95;100035.33;103431;1250;137834;-69
2024/01/26 18:33:47;;;;;;;29.60;18.40;;;;;;;1.19;82.04;100022.66;103549;1256;107287;-66
2024/01/26 18:36:14;;;;;;;26.50;16.60;;;;;;;1.17;82.03;100017.35;103548;1255;96332;-67
2024/01/26 18:38:43;;;;;;;25.60;15.60;;;;;;;1.16;82.23;100017.52;103441;1255;138038;-68
2024/01/26 18:41:19;;;;;;;27.10;14.80;;;;;;;1.17;82.42;100014.44;103523;1250;107693;-69
2024/01/26 18:43:46;;;;;;;29.30;17.30;;;;;;;1.17;82.51;100005.02;103423;1250;138804;-68
2024/01/26 18:46:13;;;;;;;32.50;19.70;;;;;;;1.19;82.56;99989.10;103531;1250;107501;-68
2024/01/26 18:48:40;;;;;;;30.50;18.20;;;;;;;1.19;82.48;99999.02;103408;1250;137606;-68
2024/01/26 18:51:07;;;;;;;32.90;19.20;;;;;;;1.20;82.48;99982.08;103656;1250;108927;-68
2024/01/26 18:53:34;;;;;;;30.10;19.00;;;;;;;1.18;82.61;99981.23;103586;1250;107859;-69
2024/01/26 18:56:01;;;;;;;28.00;17.00;;;;;;;1.15;82.77;99975.05;103445;1250;137597;-69
2024/01/26 18:58:28;;;;;;;26.30;16.10;;;;;;;1.12;82.74;99965.64;104017;1255;106923;-68
2024/01/26 19:00:57;;;;;;;25.80;15.80;;;;;;;1.16;82.86;99964.95;102918;1250;1003090;-68
2024/01/26 19:03:25;;;;;;;26.50;15.70;;;;;;;1.18;82.79;99956.39;103556;1250;110414;-68
2024/01/26 19:05:52;;;;;;;25.50;15.20;;;;;;;1.23;82.75;99954.33;103576;1250;107283;-69
2024/01/26 19:08:21;;;;;;;25.70;15.70;;;;;;;1.24;82.80;99951.08;103966;1255;137944;-66
2024/01/26 19:10:48;;;;;;;22.20;15.00;;;;;;;1.26;82.83;99946.79;103560;1250;108583;-69
2024/01/26 19:13:15;;;;;;;31.00;17.30;;;;;;;1.26;82.78;99939.79;103453;1253;138288;-67
2024/01/26 19:15:43;;;;;;;32.40;16.10;;;;;;;1.23;82.85;99930.70;103541;1250;109507;-67
2024/01/26 19:18:15;;;;;;;27.00;15.40;;;;;;;1.22;82.95;99925.73;103542;1250;107163;-67
2024/01/26 19:20:43;;;;;;;27.10;15.70;;;;;;;1.22;83.02;99925.21;103520;1251;138247;-67
2024/01/26 19:23:11;;;;;;;23.20;14.70;;;;;;;1.24;83.11;99912.54;103577;1250;108622;-67
2024/01/26 19:25:39;;;;;;;25.70;15.50;;;;;;;1.27;83.09;99912.05;103551;1250;138994;-69
2024/01/26 19:28:07;;;;;;;28.00;17.00;;;;;;;1.31;83.05;99903.66;103584;1251;109562;-68
2024/01/26 19:30:35;;;;;;;29.00;16.30;;;;;;;1.31;83.17;99902.29;103858;1251;106907;-67
2024/01/26 19:33:03;;;;;;;29.00;16.90;;;;;;;1.31;83.20;99901.77;103594;1250;96440;-68
2024/01/26 19:35:31;;;;;;;26.80;17.20;;;;;;;1.30;83.19;99895.95;103577;1253;107032;-67
2024/01/26 19:37:57;;;;;;;24.80;14.70;;;;;;;1.28;83.27;99892.02;103409;1250;138798;-69
2024/01/26 19:40:24;;;;;;;24.80;14.90;;;;;;;1.26;83.26;99894.05;103571;1255;109328;-69
2024/01/26 19:42:52;;;;;;;25.50;15.00;;;;;;;1.26;83.50;99888.41;103511;1250;138277;-69
2024/01/26 19:45:20;;;;;;;26.70;14.30;;;;;;;1.26;83.68;99886.19;103596;1250;96934;-66
2024/01/26 19:47:47;;;;;;;28.00;15.70;;;;;;;1.32;83.55;99894.73;103587;1255;108944;-68
2024/01/26 19:50:15;;;;;;;26.60;15.30;;;;;;;1.34;83.70;99892.34;103434;1250;137427;-68
2024/01/26 19:52:43;;;;;;;30.70;16.80;;;;;;;1.36;83.46;99889.42;103612;1255;110619;-67
2024/01/26 19:55:12;;;;;;;27.90;17.00;;;;;;;1.39;83.85;99889.59;103361;1252;137488;-68
2024/01/26 19:57:40;;;;;;;25.00;15.30;;;;;;;1.39;83.78;99897.98;103556;1250;96440;-68
2024/01/26 20:00:09;;;;;;;30.80;15.50;;;;;;;1.40;83.96;99900.04;103720;1255;107112;-67
2024/01/26 20:02:36;;;;;;;23.80;14.70;;;;;;;1.41;84.12;99899.01;103815;1250;138022;-67
2024/01/26 20:05:03;;;;;;;27.00;14.90;;;;;;;1.44;84.43;99900.05;103604;1250;109390;-67
2024/01/26 20:07:30;;;;;;;26.40;16.00;;;;;;;1.45;84.68;99904.50;103441;1250;137823;-67
2024/01/26 20:09:57;;;;;;;27.40;17.20;;;;;;;1.45;85.28;99907.08;103589;1250;96450;-67
2024/01/26 20:12:25;;;;;;;28.20;16.90;;;;;;;1.41;85.45;99906.71;103591;1250;108719;-68
2024/01/26 20:14:51;;;;;;;30.70;18.00;;;;;;;1.35;85.69;99899.70;103511;1251;137144;-68
2024/01/26 20:17:20;;;;;;;28.90;17.60;;;;;;;1.26;86.15;99902.28;103519;1255;109977;-68
2024/01/26 20:19:47;;;;;;;28.60;16.20;;;;;;;1.17;86.81;99894.40;102719;1250;1005124;-67
2024/01/26 20:22:14;;;;;;;30.60;16.10;;;;;;;1.10;87.02;99892.18;103633;1250;96436;-68
2024/01/26 20:24:41;;;;;;;24.30;15.70;;;;;;;1.04;87.73;99880.52;103434;1250;138696;-68
2024/01/26 20:27:09;;;;;;;27.90;16.30;;;;;;;0.99;88.30;99880.35;103628;1255;96470;-68
2024/01/26 20:29:36;;;;;;;32.70;17.90;;;;;;;0.91;89.37;99873.33;103606;1250;110508;-68
2024/01/26 20:32:04;;;;;;;33.70;18.20;;;;;;;0.84;89.54;99869.55;103424;1250;137958;-68
2024/01/26 20:34:31;;;;;;;34.50;18.70;;;;;;;0.80;89.82;99860.65;103617;1250;96427;-68
2024/01/26 20:37:00;;;;;;;32.80;18.50;;;;;;;0.78;90.17;99855.52;103450;1251;138618;-68
2024/01/26 20:39:27;;;;;;;28.60;17.00;;;;;;;0.75;90.79;99843.71;103584;1250;96467;-68
2024/01/26 20:41:55;;;;;;;32.90;18.90;;;;;;;0.72;90.99;99841.48;103573;1251;109702;-68
2024/01/26 20:44:23;;;;;;;26.60;16.10;;;;;;;0.70;91.81;99831.36;103436;1250;139697;-68
2024/01/26 20:46:50;;;;;;;31.10;17.40;;;;;;;0.71;91.51;99836.67;103801;1255;96466;-68
2024/01/26 20:49:17;;;;;;;29.30;18.70;;;;;;;0.72;91.64;99833.27;103447;1250;137354;-69
2024/01/26 20:51:44;;;;;;;36.60;21.60;;;;;;;0.72;92.36;99832.57;102884;1250;1002955;-68
2024/01/26 20:54:11;;;;;;;28.10;19.30;;;;;;;0.67;92.56;99829.83;103623;1250;110778;-68
2024/01/26 20:56:38;;;;;;;31.80;19.60;;;;;;;0.64;93.06;99824.02;103422;1250;138156;-68
2024/01/26 20:59:05;;;;;;;30.00;19.20;;;;;;;0.60;93.20;99819.73;103617;1250;96427;-69
2024/01/26 21:01:35;;;;;;;30.30;18.60;;;;;;;0.57;94.11;99812.89;103479;1250;137986;-69
2024/01/26 21:04:01;;;;;;;33.60;20.20;;;;;;;0.53;94.57;99806.89;103719;1253;96442;-69
2024/01/26 21:06:28;;;;;;;32.80;19.80;;;;;;;0.52;94.56;99810.13;103579;1251;110279;-69
2024/01/26 21:08:56;;;;;;;35.60;19.60;;;;;;;0.49;94.95;99807.90;103422;1250;138069;-69
2024/01/26 21:11:23;;;;;;;30.10;19.60;;;;;;;0.50;95.11;99799.17;103723;1250;96462;-68
2024/01/26 21:13:50;;;;;;;31.30;19.30;;;;;;;0.51;95.41;99799.86;103499;1254;138116;-69
2024/01/26 21:16:20;;;;;;;35.90;20.80;;;;;;;0.52;95.74;99794.23;103511;1250;96443;-70
2024/01/26 21:18:47;;;;;;;32.60;19.60;;;;;;;0.53;96.66;99793.20;103479;1250;138609;-70
2024/01/26 21:21:15;;;;;;;35.20;20.50;;;;;;;0.52;96.73;99793.02;103525;1253;108192;-69
2024/01/26 21:23:41;;;;;;;33.30;20.90;;;;;;;0.52;96.88;99795.59;103613;1250;96761;-70
2024/01/26 21:26:08;;;;;;;35.30;19.90;;;;;;;0.53;97.35;99789.61;103471;1255;138415;-70
2024/01/26 21:28:36;;;;;;;34.80;20.40;;;;;;;0.54;97.69;99782.09;103607;1250;96462;-70
2024/01/26 21:31:02;;;;;;;36.60;20.40;;;;;;;0.55;98.33;99780.23;103441;1255;138745;-71
2024/01/26 21:33:30;;;;;;;36.50;20.80;;;;;;;0.56;98.26;99785.02;103569;1250;107776;-71
2024/01/26 21:35:57;;;;;;;36.80;20.50;;;;;;;0.56;98.06;99779.54;103565;1250;96328;-71
2024/01/26 21:38:25;;;;;;;32.50;20.00;;;;;;;0.57;98.59;99779.54;103498;1250;137797;-71
2024/01/26 21:40:52;;;;;;;36.50;20.80;;;;;;;0.57;98.70;99770.98;103599;1250;96438;-70
2024/01/26 21:43:20;;;;;;;36.80;21.50;;;;;;;0.58;98.42;99772.18;103946;1250;138574;-70
2024/01/26 21:45:49;;;;;;;38.20;20.90;;;;;;;0.60;98.45;99765.51;103464;1250;107381;-71
2024/01/26 21:48:20;;;;;;;34.30;21.00;;;;;;;0.64;98.13;99768.92;103558;1254;96338;-71
2024/01/26 21:50:47;;;;;;;39.90;21.90;;;;;;;0.68;98.14;99770.63;103376;1254;138579;-70
2024/01/26 21:53:15;;;;;;;36.30;21.80;;;;;;;0.73;98.06;99771.33;103480;1251;96907;-70
2024/01/26 21:55:42;;;;;;;34.20;22.50;;;;;;;0.77;98.67;99767.73;103385;1259;139611;-70
2024/01/26 21:58:09;;;;;;;40.30;22.60;;;;;;;0.79;98.38;99767.05;103495;1255;108520;-69
2024/01/26 22:00:37;;;;;;;36.50;21.60;;;;;;;0.80;98.37;99764.14;103469;1255;96936;-72
2024/01/26 22:03:05;;;;;;;34.90;21.00;;;;;;;0.81;98.13;99762.41;103491;1255;108305;-70
2024/01/26 22:05:35;;;;;;;36.40;20.80;;;;;;;0.84;98.62;99760.87;103662;1250;96361;-70
2024/01/26 22:08:02;;;;;;;34.10;20.70;;;;;;;0.87;98.73;99761.38;103460;1250;138165;-69
2024/01/26 22:10:38;;;;;;;34.90;20.50;;;;;;;0.92;98.49;99762.08;103548;1253;107271;-70
2024/01/26 22:13:05;;;;;;;38.80;22.50;;;;;;;0.98;98.94;99759.66;103682;1250;138597;-69
2024/01/26 22:15:32;;;;;;;38.70;23.70;;;;;;;1.02;99.02;99763.42;103579;1250;107686;-69
2024/01/26 22:17:59;;;;;;;41.70;24.50;;;;;;;1.04;98.89;99760.34;103557;1253;96433;-69
2024/01/26 22:20:26;;;;;;;42.20;23.70;;;;;;;1.04;98.91;99762.73;103464;1250;138849;-70
2024/01/26 22:22:53;;;;;;;40.20;23.40;;;;;;;1.04;98.95;99759.14;103527;1250;107287;-70
2024/01/26 22:25:21;;;;;;;37.50;22.90;;;;;;;1.05;99.07;99763.92;103403;1252;138237;-69
2024/01/26 22:27:51;;;;;;;38.30;22.20;;;;;;;1.09;99.28;99757.09;103459;1256;108085;-70
2024/01/26 22:30:19;;;;;;;38.60;22.80;;;;;;;1.12;99.61;99760.17;103509;1255;96539;-69
2024/01/26 22:32:46;;;;;;;38.20;22.30;;;;;;;1.15;99.57;99757.41;103363;1255;139172;-71
2024/01/26 22:35:13;;;;;;;37.20;21.30;;;;;;;1.18;99.93;99756.20;103371;1257;106684;-70
2024/01/26 22:37:40;;;;;;;32.10;20.40;;;;;;;1.23;99.83;99756.36;103442;1256;138447;-70
2024/01/26 22:40:08;;;;;;;34.30;20.40;;;;;;;1.25;99.91;99752.08;103588;1250;107187;-70
2024/01/26 22:42:36;;;;;;;32.30;19.00;;;;;;;1.31;100.00;99746.25;103949;1250;96430;-69
2024/01/26 22:45:04;;;;;;;33.10;19.40;;;;;;;1.36;100.00;99744.35;103496;1254;110649;-70
2024/01/26 22:47:31;;;;;;;34.50;19.00;;;;;;;1.42;100.00;99746.89;103986;1250;107881;-71
2024/01/26 22:49:58;;;;;;;33.20;19.10;;;;;;;1.53;100.00;99746.00;103395;1251;138660;-70
2024/01/26 22:52:24;;;;;;;31.80;18.30;;;;;;;1.64;100.00;99742.88;103413;1253;107687;-70
2024/01/26 22:54:51;;;;;;;32.20;18.20;;;;;;;1.77;100.00;99742.82;103462;1250;138544;-70
2024/01/26 22:57:19;;;;;;;28.70;17.30;;;;;;;1.94;100.00;99746.33;103625;1251;109655;-70
2024/01/26 22:59:46;;;;;;;29.50;18.30;;;;;;;2.10;100.00;99757.73;103510;1250;107287;-70
2024/01/26 23:02:12;;;;;;;30.10;17.40;;;;;;;2.21;100.00;99754.42;103427;1251;138985;-70
2024/01/26 23:04:40;;;;;;;28.70;18.00;;;;;;;2.32;100.00;99758.63;103581;1251;107697;-69
2024/01/26 23:07:07;;;;;;;28.80;16.50;;;;;;;2.43;100.00;99753.58;103445;1250;141450;-70
2024/01/26 23:09:34;;;;;;;29.60;17.90;;;;;;;2.53;100.00;99754.54;102833;1250;1003691;-69
2024/01/26 23:12:02;;;;;;;30.10;16.50;;;;;;;2.63;100.00;99755.48;103503;1250;109018;-69
2024/01/26 23:14:29;;;;;;;30.10;16.70;;;;;;;2.72;100.00;99753.02;103391;1252;138384;-70
2024/01/26 23:16:56;;;;;;;27.10;16.60;;;;;;;2.81;100.00;99759.27;103579;1251;109590;-70